Time,TemperatureF,DewpointF,PressureIn,WindDirection,WindDirectionDegrees,WindSpeedMPH,WindSpeedGustMPH,Humidity,HourlyPrecipIn,Conditions,Clouds,dailyrainin,SoftwareType,DateUTC
2013-02-06 00:21:00,33.0,30.0,30.07,WNW,294,0.0,-999.0,89,-99.99,,,-99.99,,2013-02-06 06:21:00,
2013-02-06 00:32:00,33.0,30.0,30.07,WNW,294,0.0,-999.0,89,-99.99,,,-99.99,,2013-02-06 06:32:00,
2013-02-06 00:42:00,33.0,30.0,30.07,WNW,294,0.0,-999.0,89,-99.99,,,-99.99,,2013-02-06 06:42:00,
2013-02-06 00:51:00,32.0,29.0,30.08,WNW,294,0.0,-999.0,89,-99.99,,,-99.99,,2013-02-06 06:51:00,
2013-02-06 01:01:00,31.0,28.0,30.09,WNW,294,0.0,-999.0,90,-99.99,,,-99.99,,2013-02-06 07:01:00,
2013-02-06 01:21:00,31.0,29.0,30.09,WNW,294,0.0,-999.0,91,-99.99,,,-99.99,,2013-02-06 07:21:00,
2013-02-06 01:32:00,31.0,29.0,30.10,WNW,294,0.0,-999.0,91,-99.99,,,-99.99,,2013-02-06 07:32:00,
2013-02-06 01:51:00,31.0,29.0,30.09,WNW,294,0.0,-999.0,91,-99.99,,,-99.99,,2013-02-06 07:51:00,
2013-02-06 02:01:00,31.0,29.0,30.10,WNW,294,0.0,-999.0,91,-99.99,,,-99.99,,2013-02-06 08:01:00,
2013-02-06 02:11:00,31.0,29.0,30.10,WNW,294,0.0,-999.0,91,-99.99,,,-99.99,,2013-02-06 08:11:00,
2013-02-06 02:21:00,31.0,29.0,30.10,WNW,294,0.0,-999.0,91,-99.99,,,-99.99,,2013-02-06 08:21:00,
2013-02-06 02:31:00,30.0,28.0,30.10,WNW,294,0.0,-999.0,92,-99.99,,,-99.99,,2013-02-06 08:31:00,
2013-02-06 02:41:00,30.0,28.0,30.10,WNW,294,0.0,-999.0,92,-99.99,,,-99.99,,2013-02-06 08:41:00,
2013-02-06 02:53:00,30.0,28.0,30.11,WNW,294,0.0,-999.0,91,-99.99,,,-99.99,,2013-02-06 08:53:00,
2013-02-06 03:01:00,29.0,27.0,30.11,WNW,294,0.0,-999.0,91,-99.99,,,-99.99,,2013-02-06 09:01:00,
2013-02-06 03:11:00,29.0,27.0,30.11,WNW,294,0.0,-999.0,91,-99.99,,,-99.99,,2013-02-06 09:11:00,
2013-02-06 03:21:00,29.0,27.0,30.11,WNW,294,0.0,-999.0,92,-99.99,,,-99.99,,2013-02-06 09:21:00,
2013-02-06 03:31:00,29.0,27.0,30.12,WNW,294,0.0,-999.0,92,-99.99,,,-99.99,,2013-02-06 09:31:00,
2013-02-06 03:41:00,29.0,27.0,30.12,WNW,294,0.0,-999.0,92,-99.99,,,-99.99,,2013-02-06 09:41:00,
2013-02-06 03:51:00,29.0,27.0,30.12,WNW,294,0.0,-999.0,92,-99.99,,,-99.99,,2013-02-06 09:51:00,
2013-02-06 04:01:00,28.0,26.0,30.11,WNW,294,0.0,-999.0,92,-99.99,,,-99.99,,2013-02-06 10:01:00,
2013-02-06 04:21:00,28.0,26.0,30.12,WNW,294,0.0,-999.0,92,-99.99,,,-99.99,,2013-02-06 10:21:00,
2013-02-06 04:31:00,28.0,26.0,30.11,WNW,294,0.0,-999.0,92,-99.99,,,-99.99,,2013-02-06 10:31:00,
2013-02-06 04:42:00,28.0,26.0,30.11,WNW,294,0.0,-999.0,92,-99.99,,,-99.99,,2013-02-06 10:42:00,
2013-02-06 04:51:00,28.0,26.0,30.11,WNW,294,0.0,-999.0,92,-99.99,,,-99.99,,2013-02-06 10:51:00,
2013-02-06 05:01:00,28.0,26.0,30.11,WNW,294,0.0,-999.0,92,-99.99,,,-99.99,,2013-02-06 11:01:00,
2013-02-06 05:11:00,28.0,26.0,30.11,WNW,294,0.0,-999.0,92,-99.99,,,-99.99,,2013-02-06 11:11:00,
2013-02-06 05:22:00,28.0,26.0,30.12,WNW,294,0.0,-999.0,92,-99.99,,,-99.99,,2013-02-06 11:22:00,
2013-02-06 05:32:00,28.0,26.0,30.12,WNW,294,0.0,-999.0,93,-99.99,,,-99.99,,2013-02-06 11:32:00,
2013-02-06 05:42:00,28.0,26.0,30.12,WNW,294,0.0,-999.0,93,-99.99,,,-99.99,,2013-02-06 11:42:00,
2013-02-06 05:52:00,28.0,26.0,30.12,WNW,294,0.0,-999.0,93,-99.99,,,-99.99,,2013-02-06 11:52:00,
2013-02-06 06:02:00,28.0,26.0,30.14,WNW,294,0.0,-999.0,93,-99.99,,,-99.99,,2013-02-06 12:02:00,
2013-02-06 06:12:00,28.0,26.0,30.14,WNW,294,0.0,-999.0,93,-99.99,,,-99.99,,2013-02-06 12:12:00,
2013-02-06 06:22:00,28.0,26.0,30.13,WNW,294,0.0,-999.0,93,-99.99,,,-99.99,,2013-02-06 12:22:00,
2013-02-06 06:32:00,28.0,26.0,30.14,WNW,294,0.0,-999.0,93,-99.99,,,-99.99,,2013-02-06 12:32:00,
2013-02-06 06:42:00,28.0,26.0,30.14,WNW,294,0.0,-999.0,93,-99.99,,,-99.99,,2013-02-06 12:42:00,
2013-02-06 06:52:00,28.0,26.0,30.15,WNW,294,0.0,-999.0,93,-99.99,,,-99.99,,2013-02-06 12:52:00,
2013-02-06 07:01:00,28.0,26.0,30.16,WNW,294,0.0,-999.0,93,-99.99,,,-99.99,,2013-02-06 13:01:00,
2013-02-06 07:11:00,28.0,26.0,30.16,WNW,294,0.0,-999.0,93,-99.99,,,-99.99,,2013-02-06 13:11:00,
2013-02-06 07:22:00,27.0,25.0,30.17,WNW,294,0.0,-999.0,93,-99.99,,,-99.99,,2013-02-06 13:22:00,
2013-02-06 07:32:00,27.0,25.0,30.17,WNW,294,0.0,-999.0,93,-99.99,,,-99.99,,2013-02-06 13:32:00,
2013-02-06 07:42:00,27.0,25.0,30.17,WNW,294,0.0,-999.0,93,-99.99,,,-99.99,,2013-02-06 13:42:00,
2013-02-06 07:52:00,27.0,25.0,30.19,WNW,294,0.0,-999.0,93,-99.99,,,-99.99,,2013-02-06 13:52:00,
2013-02-06 08:02:00,27.0,25.0,30.19,WNW,294,0.0,-999.0,93,-99.99,,,-99.99,,2013-02-06 14:02:00,
2013-02-06 08:11:00,27.0,25.0,30.19,WNW,294,0.0,-999.0,93,-99.99,,,-99.99,,2013-02-06 14:11:00,
2013-02-06 08:22:00,28.0,26.0,30.20,WNW,294,0.0,-999.0,93,-99.99,,,-99.99,,2013-02-06 14:22:00,
2013-02-06 08:32:00,29.0,27.0,30.20,WNW,294,0.0,-999.0,94,-99.99,,,-99.99,,2013-02-06 14:32:00,
2013-02-06 08:41:00,29.0,27.0,30.20,WNW,294,0.0,-999.0,94,-99.99,,,-99.99,,2013-02-06 14:41:00,
2013-02-06 08:52:00,30.0,28.0,30.19,WNW,294,0.0,-999.0,94,-99.99,,,-99.99,,2013-02-06 14:52:00,
2013-02-06 09:01:00,31.0,29.0,30.20,WNW,294,0.0,-999.0,94,-99.99,,,-99.99,,2013-02-06 15:01:00,
2013-02-06 09:11:00,31.0,29.0,30.20,WNW,294,0.0,-999.0,94,-99.99,,,-99.99,,2013-02-06 15:11:00,
2013-02-06 09:21:00,33.0,31.0,30.19,ESE,123,0.0,-999.0,94,-99.99,,,-99.99,,2013-02-06 15:21:00,
2013-02-06 09:31:00,36.0,34.0,30.17,East,101,1.0,-999.0,94,-99.99,,,-99.99,,2013-02-06 15:31:00,
2013-02-06 09:41:00,36.0,34.0,30.17,East,101,1.0,-999.0,94,-99.99,,,-99.99,,2013-02-06 15:41:00,
2013-02-06 09:52:00,42.0,35.0,30.18,East,97,5.0,-999.0,76,-99.99,,,-99.99,,2013-02-06 15:52:00,
2013-02-06 10:01:00,43.0,35.0,30.17,ESE,111,3.0,-999.0,72,-99.99,,,-99.99,,2013-02-06 16:01:00,
2013-02-06 10:11:00,43.0,35.0,30.17,ESE,111,3.0,-999.0,72,-99.99,,,-99.99,,2013-02-06 16:11:00,
2013-02-06 10:21:00,44.0,34.0,30.17,SSE,166,4.0,-999.0,67,-99.99,,,-99.99,,2013-02-06 16:21:00,
2013-02-06 10:32:00,45.0,35.0,30.16,ENE,76,3.0,-999.0,67,-99.99,,,-99.99,,2013-02-06 16:32:00,
2013-02-06 10:42:00,45.0,35.0,30.16,ENE,76,3.0,-999.0,67,-99.99,,,-99.99,,2013-02-06 16:42:00,
2013-02-06 10:51:00,46.0,35.0,30.16,ENE,78,3.0,-999.0,64,-99.99,,,-99.99,,2013-02-06 16:51:00,
2013-02-06 11:02:00,47.0,35.0,30.17,East,82,4.0,-999.0,62,-99.99,,,-99.99,,2013-02-06 17:02:00,
2013-02-06 11:11:00,47.0,35.0,30.17,East,82,4.0,-999.0,62,-99.99,,,-99.99,,2013-02-06 17:11:00,
2013-02-06 11:21:00,48.0,35.0,30.17,ENE,62,4.0,-999.0,61,-99.99,,,-99.99,,2013-02-06 17:21:00,
2013-02-06 11:32:00,49.0,35.0,30.16,East,90,4.0,-999.0,59,-99.99,,,-99.99,,2013-02-06 17:32:00,
2013-02-06 11:41:00,49.0,35.0,30.16,East,90,4.0,-999.0,59,-99.99,,,-99.99,,2013-02-06 17:41:00,
2013-02-06 11:52:00,49.0,35.0,30.16,ESE,115,2.0,-999.0,58,-99.99,,,-99.99,,2013-02-06 17:52:00,
2013-02-06 12:01:00,49.0,35.0,30.16,ESE,115,2.0,-999.0,58,-99.99,,,-99.99,,2013-02-06 18:01:00,
2013-02-06 12:11:00,50.0,35.0,30.14,ENE,74,2.0,-999.0,57,-99.99,,,-99.99,,2013-02-06 18:11:00,
2013-02-06 12:23:00,50.0,35.0,30.14,ENE,74,2.0,-999.0,57,-99.99,,,-99.99,,2013-02-06 18:23:00,
2013-02-06 12:32:00,51.0,36.0,30.13,East,80,3.0,-999.0,57,-99.99,,,-99.99,,2013-02-06 18:32:00,
2013-02-06 12:42:00,51.0,36.0,30.13,East,80,3.0,-999.0,57,-99.99,,,-99.99,,2013-02-06 18:42:00,
2013-02-06 12:52:00,51.0,36.0,30.13,East,80,3.0,-999.0,57,-99.99,,,-99.99,,2013-02-06 18:52:00,
2013-02-06 13:01:00,52.0,36.0,30.10,NE,54,3.0,-999.0,54,-99.99,,,-99.99,,2013-02-06 19:01:00,
2013-02-06 13:11:00,52.0,36.0,30.10,NE,54,3.0,-999.0,54,-99.99,,,-99.99,,2013-02-06 19:11:00,
2013-02-06 13:21:00,53.0,37.0,30.09,East,82,3.0,-999.0,54,-99.99,,,-99.99,,2013-02-06 19:21:00,
2013-02-06 13:32:00,53.0,36.0,30.08,SE,134,2.0,-999.0,53,-99.99,,,-99.99,,2013-02-06 19:32:00,
2013-02-06 13:41:00,53.0,36.0,30.08,SE,134,2.0,-999.0,53,-99.99,,,-99.99,,2013-02-06 19:41:00,
2013-02-06 13:52:00,53.0,36.0,30.08,East,98,3.0,-999.0,53,-99.99,,,-99.99,,2013-02-06 19:52:00,
2013-02-06 14:01:00,54.0,36.0,30.07,East,86,3.0,-999.0,51,-99.99,,,-99.99,,2013-02-06 20:01:00,
2013-02-06 14:11:00,55.0,37.0,30.06,ENE,61,5.0,-999.0,50,-99.99,,,-99.99,,2013-02-06 20:11:00,
2013-02-06 14:21:00,55.0,37.0,30.06,ENE,61,5.0,-999.0,50,-99.99,,,-99.99,,2013-02-06 20:21:00,
2013-02-06 14:32:00,55.0,36.0,30.05,ENE,59,4.0,-999.0,49,-99.99,,,-99.99,,2013-02-06 20:32:00,
2013-02-06 14:41:00,55.0,36.0,30.05,ENE,59,4.0,-999.0,49,-99.99,,,-99.99,,2013-02-06 20:41:00,
2013-02-06 14:52:00,55.0,37.0,30.05,ENE,78,3.0,-999.0,50,-99.99,,,-99.99,,2013-02-06 20:52:00,
2013-02-06 15:02:00,56.0,38.0,30.05,ENE,70,3.0,-999.0,50,-99.99,,,-99.99,,2013-02-06 21:02:00,
2013-02-06 15:11:00,56.0,38.0,30.05,ENE,70,3.0,-999.0,50,-99.99,,,-99.99,,2013-02-06 21:11:00,
2013-02-06 15:21:00,56.0,38.0,30.04,East,91,3.0,-999.0,50,-99.99,,,-99.99,,2013-02-06 21:21:00,
2013-02-06 15:32:00,56.0,38.0,30.04,East,91,3.0,-999.0,50,-99.99,,,-99.99,,2013-02-06 21:32:00,
2013-02-06 15:41:00,56.0,38.0,30.04,East,91,3.0,-999.0,50,-99.99,,,-99.99,,2013-02-06 21:41:00,
2013-02-06 15:51:00,56.0,37.0,30.04,East,80,2.0,-999.0,49,-99.99,,,-99.99,,2013-02-06 21:51:00,
2013-02-06 16:01:00,56.0,37.0,30.04,ESE,103,3.0,-999.0,49,-99.99,,,-99.99,,2013-02-06 22:01:00,
2013-02-06 16:11:00,56.0,37.0,30.04,ESE,103,3.0,-999.0,49,-99.99,,,-99.99,,2013-02-06 22:11:00,
2013-02-06 16:21:00,56.0,38.0,30.04,ENE,78,1.0,-999.0,50,-99.99,,,-99.99,,2013-02-06 22:21:00,
2013-02-06 16:31:00,56.0,38.0,30.03,ENE,69,1.0,-999.0,50,-99.99,,,-99.99,,2013-02-06 22:31:00,
2013-02-06 16:42:00,56.0,38.0,30.03,ENE,69,1.0,-999.0,50,-99.99,,,-99.99,,2013-02-06 22:42:00,
2013-02-06 16:51:00,56.0,38.0,30.02,East,82,1.0,-999.0,51,-99.99,,,-99.99,,2013-02-06 22:51:00,
2013-02-06 17:01:00,56.0,38.0,30.02,ENE,69,1.0,-999.0,51,-99.99,,,-99.99,,2013-02-06 23:01:00,
2013-02-06 17:11:00,56.0,38.0,30.02,ENE,69,1.0,-999.0,51,-99.99,,,-99.99,,2013-02-06 23:11:00,
2013-02-06 17:21:00,55.0,38.0,30.02,ENE,69,3.0,-999.0,52,-99.99,,,-99.99,,2013-02-06 23:21:00,
2013-02-06 17:32:00,55.0,38.0,30.01,East,88,2.0,-999.0,52,-99.99,,,-99.99,,2013-02-06 23:32:00,
2013-02-06 17:42:00,55.0,38.0,30.01,East,88,2.0,-999.0,52,-99.99,,,-99.99,,2013-02-06 23:42:00,
2013-02-06 17:52:00,54.0,38.0,30.02,ENE,77,1.0,-999.0,54,-99.99,,,-99.99,,2013-02-06 23:52:00,
2013-02-06 18:01:00,53.0,38.0,30.02,East,82,0.0,-999.0,57,-99.99,,,-99.99,,2013-02-07 00:01:00,
2013-02-06 18:11:00,53.0,38.0,30.02,East,82,0.0,-999.0,57,-99.99,,,-99.99,,2013-02-07 00:11:00,
2013-02-06 18:21:00,52.0,38.0,30.02,East,94,0.0,-999.0,58,-99.99,,,-99.99,,2013-02-07 00:21:00,
2013-02-06 18:31:00,52.0,39.0,30.03,East,94,0.0,-999.0,60,-99.99,,,-99.99,,2013-02-07 00:31:00,
2013-02-06 18:41:00,52.0,39.0,30.03,East,94,0.0,-999.0,60,-99.99,,,-99.99,,2013-02-07 00:41:00,
2013-02-06 18:51:00,52.0,39.0,30.04,ESE,108,1.0,-999.0,60,-99.99,,,-99.99,,2013-02-07 00:51:00,
2013-02-06 19:01:00,51.0,38.0,30.04,ENE,59,2.0,-999.0,60,-99.99,,,-99.99,,2013-02-07 01:01:00,
2013-02-06 19:11:00,51.0,38.0,30.04,ENE,59,2.0,-999.0,60,-99.99,,,-99.99,,2013-02-07 01:11:00,
2013-02-06 19:21:00,51.0,38.0,30.04,East,81,2.0,-999.0,62,-99.99,,,-99.99,,2013-02-07 01:21:00,
2013-02-06 19:31:00,50.0,38.0,30.04,ENE,76,1.0,-999.0,63,-99.99,,,-99.99,,2013-02-07 01:31:00,
2013-02-06 19:41:00,50.0,38.0,30.04,ENE,76,1.0,-999.0,63,-99.99,,,-99.99,,2013-02-07 01:41:00,
2013-02-06 19:52:00,50.0,38.0,30.05,East,83,1.0,-999.0,63,-99.99,,,-99.99,,2013-02-07 01:52:00,
2013-02-06 20:01:00,50.0,39.0,30.04,ENE,77,1.0,-999.0,65,-99.99,,,-99.99,,2013-02-07 02:01:00,
2013-02-06 20:11:00,50.0,39.0,30.04,ENE,77,1.0,-999.0,65,-99.99,,,-99.99,,2013-02-07 02:11:00,
2013-02-06 20:21:00,49.0,38.0,30.04,ENE,62,1.0,-999.0,65,-99.99,,,-99.99,,2013-02-07 02:21:00,
2013-02-06 20:31:00,49.0,38.0,30.04,ENE,72,2.0,-999.0,66,-99.99,,,-99.99,,2013-02-07 02:31:00,
2013-02-06 20:41:00,49.0,38.0,30.04,ENE,72,2.0,-999.0,66,-99.99,,,-99.99,,2013-02-07 02:41:00,
2013-02-06 20:51:00,49.0,38.0,30.04,ENE,72,2.0,-999.0,66,-99.99,,,-99.99,,2013-02-07 02:51:00,
2013-02-06 21:02:00,49.0,39.0,30.04,ENE,69,2.0,-999.0,67,-99.99,,,-99.99,,2013-02-07 03:02:00,
2013-02-06 21:11:00,49.0,39.0,30.04,ENE,69,2.0,-999.0,67,-99.99,,,-99.99,,2013-02-07 03:11:00,
2013-02-06 21:21:00,48.0,38.0,30.04,ENE,69,1.0,-999.0,69,-99.99,,,-99.99,,2013-02-07 03:21:00,
2013-02-06 21:31:00,47.0,38.0,30.03,ENE,75,0.0,-999.0,71,-99.99,,,-99.99,,2013-02-07 03:31:00,
2013-02-06 21:41:00,47.0,38.0,30.03,ENE,75,0.0,-999.0,71,-99.99,,,-99.99,,2013-02-07 03:41:00,
2013-02-06 21:51:00,47.0,38.0,30.04,East,79,0.0,-999.0,72,-99.99,,,-99.99,,2013-02-07 03:51:00,
2013-02-06 22:01:00,47.0,39.0,30.03,East,79,0.0,-999.0,74,-99.99,,,-99.99,,2013-02-07 04:01:00,
2013-02-06 22:11:00,47.0,39.0,30.03,East,79,0.0,-999.0,74,-99.99,,,-99.99,,2013-02-07 04:11:00,
2013-02-06 22:22:00,47.0,39.0,30.03,East,79,0.0,-999.0,73,-99.99,,,-99.99,,2013-02-07 04:22:00,
2013-02-06 22:31:00,46.0,39.0,30.03,East,79,0.0,-999.0,75,-99.99,,,-99.99,,2013-02-07 04:31:00,
2013-02-06 22:41:00,46.0,39.0,30.03,East,79,0.0,-999.0,75,-99.99,,,-99.99,,2013-02-07 04:41:00,
2013-02-06 22:52:00,46.0,40.0,30.03,East,80,0.0,-999.0,78,-99.99,,,-99.99,,2013-02-07 04:52:00,
2013-02-06 23:02:00,46.0,39.0,30.03,East,79,0.0,-999.0,76,-99.99,,,-99.99,,2013-02-07 05:02:00,
2013-02-06 23:11:00,46.0,39.0,30.03,East,79,0.0,-999.0,76,-99.99,,,-99.99,,2013-02-07 05:11:00,
2013-02-06 23:21:00,46.0,39.0,30.02,East,79,0.0,-999.0,76,-99.99,,,-99.99,,2013-02-07 05:21:00,
2013-02-06 23:32:00,46.0,39.0,30.02,East,79,0.0,-999.0,77,-99.99,,,-99.99,,2013-02-07 05:32:00,
2013-02-06 23:42:00,46.0,39.0,30.02,East,79,0.0,-999.0,77,-99.99,,,-99.99,,2013-02-07 05:42:00,
2013-02-06 23:52:00,46.0,39.0,30.01,East,80,0.0,-999.0,77,-99.99,,,-99.99,,2013-02-07 05:52:00,